X  Chiuso Dati meteorologici dell'aviazione (METAR)     ENRY Moss Airport, Rygge
Temperatura
13°C Temperatura
8°C Punto di rugiada
72% Umidità



Vento
4 M/S
10 MPH
16 KM/O
9 KTS



180°
S
Condizioni attuali

Parzialmente nuvoloso Parzialmente nuvoloso
Pressione 1006.77 (hPa) - 29.73 (inHg)
Visibilità 6 (miglio) - 9.7 (km)
Aeroporto
Codice-Aeroporto ENRY

Posizione: Moss Airport, Rygge
Distanza: 12 (km)

Metar:
ENRY 121850Z AUTO 18009KT 140V210 9999 R12/P2000N R30///// FEW021/// BKN034/// BKN080/// 13/08 Q1007

Ore: 12-06-2024 20:50 CEST